HSPN

Port Sudan New International Airport

Port Sudan, Sudan
METAR HSPN 242200Z 25004KT CAVOK 26/20 Q1010
Observed Flight Rules
Apr-24 @ 22:00 UTC (3 hours ago) Visual Flight Rules
Wind Visibility Clouds
250° at 4 knots 10,000+ meters
  • Clear skies
Temperatures Readings
Current 26°C / 79°F
Dewpoint 20°C / 68°F
Humidity 70%
Altimeter 29.82" Hg
Pressure 1010 hPa
Elevation 138
METAR HSPN 242200Z 25004KT CAVOK 26/20 Q1010
Observed Flight Rules
Apr-24 @ 22:00 UTC
(3 hours ago)
VFR
Wind Visibility
250° at 4 knots 10,000+ meters
Clouds
  • Clear skies
Temperature Dewpoint
26°C / 79°F 20°C / 68°F
Humidity Altimeter Pressure
70% 29.82" Hg 1010 hPa